Time;durP1;ratioP1;P1;durP2;ratioP2;P2;SDS_P1;SDS_P2;PMS_P1;PMS_P2;Temp;Humidity;BMP_temperature;BMP_pressure;BME280_temperature;BME280_humidity;BME280_pressure;Samples;Min_cycle;Max_cycle;Signal;HPM_P1;HPM_P2
2023/06/03 00:01:50;;;;;;;3.20;1.20;;;;;;;9.10;52.34;99723.43;107728;1309;22390;-52
2023/06/03 00:04:17;;;;;;;3.20;1.20;;;;;;;9.07;52.20;99728.10;107691;1309;22245;-49
2023/06/03 00:06:42;;;;;;;3.70;1.20;;;;;;;9.02;53.00;99728.30;107722;1309;22220;-51
2023/06/03 00:09:09;;;;;;;2.70;1.30;;;;;;;9.01;52.06;99730.45;107701;1309;22227;-49
2023/06/03 00:11:37;;;;;;;5.00;1.50;;;;;;;8.98;52.60;99732.29;107700;1309;22444;-49
2023/06/03 00:14:03;;;;;;;5.80;2.70;;;;;;;8.99;52.75;99731.58;107695;1309;22439;-48
2023/06/03 00:16:28;;;;;;;4.10;2.90;;;;;;;8.96;53.83;99731.86;107692;1310;22412;-50
2023/06/03 00:18:53;;;;;;;3.80;2.30;;;;;;;8.98;53.00;99736.51;107677;1309;23093;-50
2023/06/03 00:21:18;;;;;;;2.60;1.50;;;;;;;8.94;53.21;99732.64;107689;1309;22232;-48
2023/06/03 00:23:45;;;;;;;3.60;1.50;;;;;;;8.91;53.32;99734.35;107691;1309;22230;-50
2023/06/03 00:26:11;;;;;;;2.80;1.50;;;;;;;8.85;53.55;99735.30;107715;1309;22337;-45
2023/06/03 00:28:36;;;;;;;6.10;1.60;;;;;;;8.82;53.97;99735.41;107514;1310;23610;-47
2023/06/03 00:31:02;;;;;;;2.20;1.40;;;;;;;8.82;54.35;99736.27;107704;1309;22228;-46
2023/06/03 00:33:27;;;;;;;6.90;1.40;;;;;;;8.82;54.20;99735.39;107724;1309;22836;-48
2023/06/03 00:35:52;;;;;;;3.80;1.50;;;;;;;8.78;54.09;99736.81;107688;1309;24176;-46
2023/06/03 00:38:18;;;;;;;1.90;1.30;;;;;;;8.76;53.88;99732.34;107698;1309;22832;-50
2023/06/03 00:40:43;;;;;;;1.40;1.10;;;;;;;8.72;54.52;99732.86;107724;1309;22204;-47
2023/06/03 00:43:09;;;;;;;2.70;1.60;;;;;;;8.66;54.27;99732.02;107700;1310;22261;-49
2023/06/03 00:45:35;;;;;;;8.10;1.60;;;;;;;8.63;54.50;99732.70;107693;1309;23379;-48
2023/06/03 00:48:01;;;;;;;5.90;1.40;;;;;;;8.63;54.00;99735.29;107706;1309;22180;-48
2023/06/03 00:50:26;;;;;;;5.60;1.50;;;;;;;8.52;54.96;99738.53;107687;1309;22250;-50
2023/06/03 00:52:52;;;;;;;3.20;1.20;;;;;;;8.43;55.64;99740.83;107653;1310;23099;-49
2023/06/03 00:55:17;;;;;;;1.20;1.00;;;;;;;8.38;56.13;99738.17;107650;1310;22243;-52
2023/06/03 00:57:43;;;;;;;3.00;1.30;;;;;;;8.37;56.00;99737.16;107642;1310;22400;-49
2023/06/03 01:00:08;;;;;;;1.60;1.30;;;;;;;8.40;56.06;99740.39;107644;1310;22446;-49
2023/06/03 01:02:36;;;;;;;5.40;1.20;;;;;;;8.39;56.40;99744.08;107644;1310;22343;-47
2023/06/03 01:05:03;;;;;;;;;;;;;;;8.39;56.64;99747.95;107681;1310;22424;-46
2023/06/03 01:07:47;;;;;;;;;;;;;;;8.36;56.11;99749.28;107654;1310;22500;-47
2023/06/03 01:10:33;;;;;;;4.40;1.90;;;;;;;8.33;55.79;99748.33;107649;1310;23387;-47
2023/06/03 01:13:17;;;;;;;5.70;1.60;;;;;;;8.22;56.22;99746.98;107635;1310;22310;-48
2023/06/03 01:15:47;;;;;;;3.20;1.20;;;;;;;8.18;57.57;99750.12;107653;1310;22235;-47
2023/06/03 01:18:14;;;;;;;1.70;1.00;;;;;;;8.13;57.42;99751.02;107650;1310;22964;-48
2023/06/03 01:20:42;;;;;;;8.50;1.40;;;;;;;8.09;57.20;99752.57;107633;1310;22399;-48
2023/06/03 01:23:23;;;;;;;2.60;1.30;;;;;;;8.09;58.07;99749.78;107642;1310;23027;-47
2023/06/03 01:25:51;;;;;;;3.90;1.30;;;;;;;8.10;58.18;99751.15;107643;1310;22264;-49
2023/06/03 01:28:17;;;;;;;2.40;1.30;;;;;;;8.10;58.09;99755.15;107656;1310;22220;-47
2023/06/03 01:30:43;;;;;;;2.60;1.40;;;;;;;8.12;58.06;99753.85;107656;1310;22223;-48
2023/06/03 01:33:09;;;;;;;3.60;1.30;;;;;;;8.10;58.63;99754.13;107654;1310;22417;-48
2023/06/03 01:35:36;;;;;;;2.10;1.20;;;;;;;8.10;58.64;99758.45;107614;1310;22125;-53
2023/06/03 01:38:02;;;;;;;3.00;1.40;;;;;;;8.11;58.13;99761.39;107646;1310;22244;-50
2023/06/03 01:40:27;;;;;;;3.60;1.30;;;;;;;8.10;58.33;99763.89;107640;1310;22408;-51
2023/06/03 01:42:53;;;;;;;5.90;1.40;;;;;;;8.10;58.37;99762.83;107628;1310;22163;-48
2023/06/03 01:45:18;;;;;;;2.70;1.40;;;;;;;8.09;58.52;99759.91;107633;1310;22277;-54
2023/06/03 01:47:43;;;;;;;4.30;1.50;;;;;;;8.06;58.62;99763.13;107631;1310;22452;-47
2023/06/03 01:50:09;;;;;;;5.90;1.50;;;;;;;8.04;58.84;99766.52;107644;1310;22185;-48
2023/06/03 01:52:35;;;;;;;4.00;1.30;;;;;;;8.02;59.32;99769.42;107637;1310;22406;-49
2023/06/03 01:55:00;;;;;;;3.00;1.40;;;;;;;8.00;59.28;99771.95;107609;1310;22231;-49
2023/06/03 01:57:25;;;;;;;3.80;1.50;;;;;;;7.98;58.59;99771.81;107626;1310;22228;-51
2023/06/03 01:59:52;;;;;;;3.30;1.20;;;;;;;7.86;59.53;99772.27;107629;1310;22297;-50
2023/06/03 02:02:17;;;;;;;3.40;1.40;;;;;;;7.84;59.97;99773.91;107632;1310;22249;-45
2023/06/03 02:04:44;;;;;;;2.00;1.50;;;;;;;7.84;59.17;99770.08;107662;1310;22221;-47
2023/06/03 02:07:10;;;;;;;4.40;1.40;;;;;;;7.76;60.13;99768.98;107638;1310;22403;-50
2023/06/03 02:09:36;;;;;;;2.20;1.30;;;;;;;7.74;60.48;99772.16;107606;1310;22225;-49
2023/06/03 02:12:02;;;;;;;3.70;1.40;;;;;;;7.74;60.21;99772.54;107635;1310;22247;-48
2023/06/03 02:14:30;;;;;;;5.20;1.50;;;;;;;7.73;60.29;99775.19;107647;1310;22402;-51
2023/06/03 02:16:56;;;;;;;2.20;1.10;;;;;;;7.73;59.84;99775.38;107636;1310;22489;-55
2023/06/03 02:19:24;;;;;;;2.60;1.30;;;;;;;7.70;59.47;99775.98;107655;1310;22396;-48
2023/06/03 02:21:50;;;;;;;4.10;1.40;;;;;;;7.65;59.99;99775.65;107647;1310;22295;-50
2023/06/03 02:24:16;;;;;;;3.20;2.00;;;;;;;7.62;59.81;99780.28;107621;1310;22265;-49
2023/06/03 02:26:52;;;;;;;5.70;1.60;;;;;;;7.58;60.70;99783.91;107617;1310;22215;-49
2023/06/03 02:29:27;;;;;;;4.30;1.40;;;;;;;7.55;61.77;99785.93;107635;1310;23152;-50
2023/06/03 02:31:57;;;;;;;2.00;1.20;;;;;;;7.54;61.71;99788.06;107622;1310;23100;-50
2023/06/03 02:34:22;;;;;;;6.20;1.30;;;;;;;7.56;61.56;99793.04;107630;1310;23049;-47
2023/06/03 02:36:49;;;;;;;3.80;1.30;;;;;;;7.56;61.04;99796.73;107626;1310;22240;-51
2023/06/03 02:39:16;;;;;;;4.10;1.60;;;;;;;7.56;61.13;99796.05;107614;1310;22290;-50
2023/06/03 02:43:40;;;;;;;2.40;1.30;;;;;;;7.57;60.71;99800.15;106943;1303;545337;-49
2023/06/03 02:46:06;;;;;;;5.40;1.30;;;;;;;7.52;61.62;99801.38;107355;1313;22222;-52
2023/06/03 02:48:31;;;;;;;2.80;1.60;;;;;;;7.55;61.25;99801.30;107358;1313;22526;-50
2023/06/03 02:50:56;;;;;;;4.00;1.50;;;;;;;7.55;61.62;99802.33;107369;1313;22943;-50
2023/06/03 02:53:22;;;;;;;3.30;1.40;;;;;;;7.56;61.97;99802.48;107337;1313;23020;-49
2023/06/03 02:55:47;;;;;;;5.50;1.50;;;;;;;7.55;61.59;99805.31;107382;1313;22419;-50
2023/06/03 02:58:12;;;;;;;3.30;1.10;;;;;;;7.51;62.34;99804.91;107446;1310;169501;-52
2023/06/03 03:00:39;;;;;;;8.90;1.60;;;;;;;7.53;62.11;99810.47;107615;1310;22222;-50
2023/06/03 03:03:05;;;;;;;3.10;1.60;;;;;;;7.53;61.93;99811.98;107624;1310;22534;-48
2023/06/03 03:05:30;;;;;;;5.50;1.50;;;;;;;7.49;62.31;99812.84;107633;1310;23497;-48
2023/06/03 03:07:58;;;;;;;9.50;1.60;;;;;;;7.49;62.18;99820.34;107591;1310;22397;-49
2023/06/03 03:10:24;;;;;;;6.10;1.40;;;;;;;7.49;62.47;99819.64;107604;1310;22248;-51
2023/06/03 03:12:50;;;;;;;5.30;1.80;;;;;;;7.48;61.73;99822.28;107662;1310;22267;-48
2023/06/03 03:15:15;;;;;;;4.90;1.50;;;;;;;7.45;62.48;99824.66;107868;1308;22449;-47
2023/06/03 03:17:41;;;;;;;7.00;1.30;;;;;;;7.45;61.90;99824.29;107876;1308;22242;-50
2023/06/03 03:20:07;;;;;;;4.90;1.70;;;;;;;7.44;63.09;99824.36;107863;1308;22226;-47
2023/06/03 03:22:33;;;;;;;1.80;1.10;;;;;;;7.46;62.75;99823.92;107891;1307;22854;-50
2023/06/03 03:24:58;;;;;;;4.30;1.60;;;;;;;7.48;62.70;99831.02;107873;1308;22208;-48
2023/06/03 03:27:25;;;;;;;4.20;1.60;;;;;;;7.49;62.12;99831.17;107843;1308;23062;-51
2023/06/03 03:29:52;;;;;;;6.50;1.60;;;;;;;7.46;62.11;99834.06;107886;1308;22235;-49
2023/06/03 03:32:19;;;;;;;4.90;2.00;;;;;;;7.44;61.98;99834.63;107901;1308;22258;-50
2023/06/03 03:34:51;;;;;;;6.50;1.90;;;;;;;7.42;63.33;99837.84;107877;1308;22112;-48
2023/06/03 03:37:16;;;;;;;7.80;1.50;;;;;;;7.45;63.64;99844.89;107893;1308;22215;-49
2023/06/03 03:39:41;;;;;;;3.50;1.30;;;;;;;7.48;63.35;99845.48;107883;1308;22384;-51
2023/06/03 03:42:08;;;;;;;3.40;1.60;;;;;;;7.51;62.53;99849.75;107861;1308;22216;-50
2023/06/03 03:44:33;;;;;;;3.20;1.60;;;;;;;7.48;63.21;99847.93;107874;1307;23316;-50
2023/06/03 03:47:02;;;;;;;5.30;1.40;;;;;;;7.53;62.84;99849.88;107859;1308;22445;-48
2023/06/03 03:49:31;;;;;;;3.30;1.50;;;;;;;7.54;63.19;99850.19;107879;1308;22386;-50
2023/06/03 03:51:57;;;;;;;6.70;1.60;;;;;;;7.55;63.64;99850.85;107865;1308;23142;-48
2023/06/03 03:54:23;;;;;;;2.50;1.30;;;;;;;7.58;63.48;99851.61;107840;1308;22250;-50
2023/06/03 03:56:55;;;;;;;4.50;1.10;;;;;;;7.61;63.63;99852.73;107884;1308;22292;-49
2023/06/03 03:59:20;;;;;;;6.40;1.50;;;;;;;7.65;63.43;99854.69;107883;1308;22974;-48
2023/06/03 04:01:47;;;;;;;6.40;1.40;;;;;;;7.67;63.24;99851.98;107850;1308;22954;-52
2023/06/03 04:04:35;;;;;;;5.60;1.50;;;;;;;7.73;63.28;99852.52;107884;1286;22204;-49
2023/06/03 04:07:00;;;;;;;2.50;1.70;;;;;;;7.79;63.29;99854.39;107870;1308;22240;-51
2023/06/03 04:09:26;;;;;;;6.30;1.30;;;;;;;7.82;63.14;99862.82;107870;1308;22702;-48
2023/06/03 04:11:51;;;;;;;4.80;1.30;;;;;;;7.86;62.74;99861.66;107853;1308;23184;-48
2023/06/03 04:14:25;;;;;;;4.50;1.10;;;;;;;7.88;62.90;99862.98;107834;1308;23162;-47
2023/06/03 04:16:58;;;;;;;2.50;1.40;;;;;;;7.88;63.30;99866.45;107894;1308;22254;-49
2023/06/03 04:19:32;;;;;;;1.60;1.20;;;;;;;7.93;63.33;99864.22;107862;1308;22242;-50
2023/06/03 04:21:59;;;;;;;1.70;1.10;;;;;;;7.99;63.42;99869.05;107883;1308;22468;-51
2023/06/03 04:24:25;;;;;;;4.80;1.50;;;;;;;8.05;62.62;99870.95;107858;1308;22232;-49
2023/06/03 04:26:51;;;;;;;5.60;1.10;;;;;;;8.07;62.61;99873.45;107873;1308;22206;-47
2023/06/03 04:29:17;;;;;;;2.10;1.20;;;;;;;8.13;62.33;99873.28;107853;1308;22230;-50
2023/06/03 04:31:43;;;;;;;2.70;1.30;;;;;;;8.16;62.87;99874.92;107893;1308;22289;-47
2023/06/03 04:34:08;;;;;;;2.30;1.00;;;;;;;8.20;63.09;99876.01;107869;1308;22227;-50
2023/06/03 04:36:33;;;;;;;2.50;1.20;;;;;;;8.24;62.27;99879.67;107739;1308;22404;-50
2023/06/03 04:38:59;;;;;;;2.40;0.90;;;;;;;8.25;61.96;99880.15;107878;1308;23040;-50
2023/06/03 04:41:27;;;;;;;5.40;1.10;;;;;;;8.28;61.52;99887.07;107871;1308;22481;-52
2023/06/03 04:43:53;;;;;;;3.40;1.10;;;;;;;8.26;61.73;99886.92;107868;1308;22182;-49
2023/06/03 04:46:19;;;;;;;3.40;0.90;;;;;;;8.24;61.65;99886.52;107867;1308;22199;-45
2023/06/03 04:48:48;;;;;;;2.10;0.90;;;;;;;8.23;61.89;99886.01;107871;1308;23129;-49
2023/06/03 04:51:13;;;;;;;1.40;0.90;;;;;;;8.24;62.09;99884.40;107863;1308;22389;-47
2023/06/03 04:53:40;;;;;;;3.40;1.10;;;;;;;8.28;61.68;99885.29;107872;1308;23251;-48
2023/06/03 04:56:08;;;;;;;4.30;1.50;;;;;;;8.28;61.88;99885.66;107866;1308;22489;-52
2023/06/03 04:58:40;;;;;;;6.30;1.20;;;;;;;8.33;61.67;99886.68;107865;1308;22231;-48
2023/06/03 05:01:08;;;;;;;3.00;1.10;;;;;;;8.40;61.68;99889.07;107904;1308;22215;-53
2023/06/03 05:03:38;;;;;;;4.60;1.20;;;;;;;8.46;61.87;99886.79;107873;1308;22222;-52
2023/06/03 05:06:10;;;;;;;3.70;1.30;;;;;;;8.51;61.96;99890.45;107885;1308;22394;-51
2023/06/03 05:08:35;;;;;;;12.10;1.50;;;;;;;8.56;61.79;99895.51;107885;1308;22276;-52
2023/06/03 05:11:02;;;;;;;1.00;0.90;;;;;;;8.59;61.77;99891.52;107882;1308;22197;-51
2023/06/03 05:13:28;;;;;;;2.10;1.00;;;;;;;8.63;61.36;99894.53;107696;1308;22903;-48
2023/06/03 05:15:53;;;;;;;4.10;0.90;;;;;;;8.66;61.23;99897.74;107889;1307;22366;-50
2023/06/03 05:18:18;;;;;;;2.00;1.10;;;;;;;8.69;61.04;99899.20;107686;1308;22266;-51
2023/06/03 05:20:43;;;;;;;3.20;1.10;;;;;;;8.71;60.87;99898.59;107859;1308;23369;-50
2023/06/03 05:23:09;;;;;;;5.00;1.00;;;;;;;8.72;61.19;99900.50;107850;1308;24914;-49
2023/06/03 05:25:34;;;;;;;3.30;1.20;;;;;;;8.74;61.71;99895.67;107851;1308;22235;-50
2023/06/03 05:27:59;;;;;;;3.00;1.10;;;;;;;8.78;61.27;99897.46;107857;1308;22231;-50
2023/06/03 05:30:25;;;;;;;1.20;0.90;;;;;;;8.79;61.25;99899.38;107839;1308;22793;-51
2023/06/03 05:32:50;;;;;;;3.90;1.40;;;;;;;8.81;61.19;99903.45;107856;1308;22246;-46
2023/06/03 05:35:15;;;;;;;3.50;1.20;;;;;;;8.85;61.14;99907.86;107867;1308;22208;-50
2023/06/03 05:37:41;;;;;;;3.90;1.00;;;;;;;8.89;61.27;99911.38;107865;1307;22210;-49
2023/06/03 05:40:07;;;;;;;3.60;1.00;;;;;;;8.96;61.52;99914.60;107851;1308;22247;-48
2023/06/03 05:42:33;;;;;;;4.80;0.80;;;;;;;9.02;61.33;99918.75;107875;1308;23456;-51
2023/06/03 05:44:58;;;;;;;3.80;1.10;;;;;;;9.06;61.18;99916.86;107867;1308;22207;-48
2023/06/03 05:47:23;;;;;;;1.80;1.00;;;;;;;9.09;61.07;99919.50;107819;1308;22244;-49
2023/06/03 05:49:48;;;;;;;2.40;1.20;;;;;;;9.14;60.81;99917.39;107874;1308;22540;-48
2023/06/03 05:52:14;;;;;;;2.10;0.90;;;;;;;9.20;60.53;99918.73;107870;1308;22538;-48
2023/06/03 05:54:39;;;;;;;5.20;1.10;;;;;;;9.22;60.96;99916.90;107848;1308;22212;-46
2023/06/03 05:57:04;;;;;;;6.10;1.10;;;;;;;9.26;60.78;99916.59;107870;1308;23162;-47
2023/06/03 05:59:30;;;;;;;2.40;1.30;;;;;;;9.25;60.80;99914.19;107853;1308;22209;-51
2023/06/03 06:01:55;;;;;;;6.90;1.10;;;;;;;9.24;61.01;99912.98;107873;1308;23259;-48
2023/06/03 06:04:20;;;;;;;2.50;1.20;;;;;;;9.28;61.00;99912.84;107854;1308;22435;-50
2023/06/03 06:06:45;;;;;;;3.30;0.90;;;;;;;9.32;60.97;99910.41;107866;1308;23045;-49
2023/06/03 06:09:11;;;;;;;2.00;0.80;;;;;;;9.39;60.83;99910.84;107866;1308;22425;-48
2023/06/03 06:11:36;;;;;;;2.20;0.90;;;;;;;9.47;60.26;99913.10;107852;1308;23165;-51
2023/06/03 06:14:01;;;;;;;2.50;1.10;;;;;;;9.49;60.56;99912.70;107849;1308;22222;-50
2023/06/03 06:16:27;;;;;;;6.20;1.00;;;;;;;9.56;60.84;99916.09;107866;1308;23879;-48
2023/06/03 06:18:52;;;;;;;5.10;1.20;;;;;;;9.63;61.06;99919.47;107875;1308;22241;-50
2023/06/03 06:21:17;;;;;;;2.00;1.10;;;;;;;9.71;60.86;99910.92;107833;1308;22262;-49
2023/06/03 06:23:43;;;;;;;3.50;1.00;;;;;;;9.77;60.34;99909.42;107864;1308;23037;-51
2023/06/03 06:26:09;;;;;;;2.30;0.90;;;;;;;9.83;60.31;99914.43;107835;1308;22401;-50
2023/06/03 06:28:34;;;;;;;3.80;1.10;;;;;;;9.88;59.97;99911.76;107873;1308;22324;-50
2023/06/03 06:31:04;;;;;;;1.70;1.20;;;;;;;9.91;59.91;99908.99;107871;1308;22991;-52
2023/06/03 06:33:32;;;;;;;2.40;0.90;;;;;;;9.99;59.96;99913.58;107855;1308;22333;-50
2023/06/03 06:36:00;;;;;;;2.20;1.00;;;;;;;10.07;59.20;99915.85;107826;1308;22378;-46
2023/06/03 06:38:25;;;;;;;2.40;1.20;;;;;;;10.09;59.05;99914.91;107860;1308;22226;-48
2023/06/03 06:40:50;;;;;;;4.30;0.80;;;;;;;10.13;59.56;99918.41;107881;1308;23280;-47
2023/06/03 06:43:18;;;;;;;5.30;1.00;;;;;;;10.21;59.08;99913.50;107872;1308;22225;-52
2023/06/03 06:45:43;;;;;;;1.50;0.90;;;;;;;10.27;58.73;99912.17;107863;1308;22233;-51
2023/06/03 06:48:11;;;;;;;1.70;1.10;;;;;;;10.27;58.60;99912.34;107887;1308;23280;-50
2023/06/03 06:50:53;;;;;;;3.00;1.30;;;;;;;10.33;58.74;99911.23;107886;1308;22208;-50
2023/06/03 06:53:19;;;;;;;5.80;1.20;;;;;;;10.41;58.28;99913.36;107861;1308;23014;-45
2023/06/03 06:55:49;;;;;;;6.50;1.50;;;;;;;10.48;58.11;99911.98;107894;1308;23059;-47
2023/06/03 06:58:15;;;;;;;2.20;1.00;;;;;;;10.55;57.85;99911.31;107864;1308;22239;-47
2023/06/03 07:00:41;;;;;;;3.60;1.00;;;;;;;10.61;57.70;99912.46;107844;1308;22203;-51
2023/06/03 07:03:15;;;;;;;4.50;1.00;;;;;;;10.65;57.12;99915.27;107886;1308;22228;-48
2023/06/03 07:05:40;;;;;;;2.40;1.00;;;;;;;10.68;56.92;99915.10;107870;1308;22208;-47
2023/06/03 07:08:07;;;;;;;2.50;0.80;;;;;;;10.76;56.58;99914.59;107861;1308;22208;-45
2023/06/03 07:10:32;;;;;;;2.80;1.00;;;;;;;10.83;56.44;99915.31;107862;1308;22236;-51
2023/06/03 07:12:57;;;;;;;1.10;0.80;;;;;;;10.84;55.96;99911.96;107877;1308;22377;-48
2023/06/03 07:15:23;;;;;;;4.60;0.80;;;;;;;10.88;54.81;99912.11;107845;1308;22213;-49
2023/06/03 07:17:53;;;;;;;4.30;0.90;;;;;;;10.89;54.41;99910.67;107885;1308;22255;-47
2023/06/03 07:20:26;;;;;;;5.00;1.80;;;;;;;10.96;54.60;99912.95;107862;1308;22206;-48
2023/06/03 07:22:51;;;;;;;1.20;1.10;;;;;;;11.07;55.18;99919.63;107883;1308;22403;-51
2023/06/03 07:25:34;;;;;;;4.30;0.90;;;;;;;11.17;54.58;99915.13;107861;1307;22235;-47
2023/06/03 07:27:59;;;;;;;1.00;0.60;;;;;;;11.26;54.52;99910.30;107848;1308;22232;-51
2023/06/03 07:30:26;;;;;;;5.80;0.80;;;;;;;11.36;54.23;99913.70;107883;1308;23273;-50
2023/06/03 07:32:58;;;;;;;3.50;0.80;;;;;;;11.47;54.16;99920.34;107882;1308;22974;-49
2023/06/03 07:35:24;;;;;;;2.50;1.00;;;;;;;11.55;52.98;99921.52;107876;1308;22673;-48
2023/06/03 07:37:49;;;;;;;3.00;1.60;;;;;;;11.65;52.73;99919.12;107927;1308;22246;-51
2023/06/03 07:40:15;;;;;;;2.10;1.00;;;;;;;11.74;52.52;99917.45;107860;1308;22225;-51
2023/06/03 07:42:48;;;;;;;4.50;1.00;;;;;;;11.79;52.52;99916.13;107701;1308;22434;-52
2023/06/03 07:45:14;;;;;;;4.30;1.00;;;;;;;11.87;52.87;99917.98;107865;1308;22980;-50
2023/06/03 07:47:40;;;;;;;4.30;0.80;;;;;;;11.96;52.47;99920.06;107893;1308;23066;-49
2023/06/03 07:50:23;;;;;;;7.60;1.40;;;;;;;12.03;51.00;99923.20;107854;1308;22251;-48
2023/06/03 07:53:05;;;;;;;4.00;0.90;;;;;;;12.15;51.45;99926.98;107874;1308;23059;-50
2023/06/03 07:55:38;;;;;;;3.80;2.10;;;;;;;12.23;50.26;99925.84;107887;1308;22346;-48
2023/06/03 07:58:04;;;;;;;1.30;1.00;;;;;;;12.26;49.96;99922.37;107870;1308;22387;-48
2023/06/03 08:00:29;;;;;;;5.20;1.10;;;;;;;12.31;50.30;99919.66;107864;1308;22250;-53
2023/06/03 08:02:54;;;;;;;6.30;1.00;;;;;;;12.38;51.12;99922.27;107869;1308;22460;-53
2023/06/03 08:05:31;;;;;;;4.90;1.00;;;;;;;12.55;51.14;99925.08;107847;1308;23062;-47
2023/06/03 08:07:57;;;;;;;2.40;0.80;;;;;;;12.69;50.37;99923.46;107866;1308;22207;-45
2023/06/03 08:10:24;;;;;;;1.10;0.90;;;;;;;12.96;50.51;99924.25;107869;1308;22431;-44
2023/06/03 08:12:50;;;;;;;3.80;0.90;;;;;;;13.27;51.42;99924.86;107857;1308;22540;-45
2023/06/03 08:15:26;;;;;;;5.60;1.00;;;;;;;13.65;50.60;99926.60;107834;1308;22236;-45
2023/06/03 08:17:52;;;;;;;3.70;1.00;;;;;;;13.75;47.23;99923.39;107850;1308;22489;-45
2023/06/03 08:20:25;;;;;;;2.00;0.70;;;;;;;13.69;46.51;99926.73;107863;1308;22954;-44
2023/06/03 08:22:50;;;;;;;1.60;0.80;;;;;;;13.75;47.30;99928.33;107849;1308;22257;-45
2023/06/03 08:25:16;;;;;;;2.30;0.70;;;;;;;13.84;46.64;99919.88;107867;1308;22405;-44
2023/06/03 08:27:41;;;;;;;2.80;0.90;;;;;;;13.85;45.76;99920.31;107825;1308;22243;-47
2023/06/03 08:30:07;;;;;;;2.30;1.00;;;;;;;13.99;45.39;99917.06;107839;1308;22391;-44
2023/06/03 08:32:34;;;;;;;3.10;1.00;;;;;;;14.15;45.77;99915.90;107867;1308;22298;-48
2023/06/03 08:34:59;;;;;;;1.00;0.80;;;;;;;14.34;43.46;99910.52;107838;1308;22462;-42
2023/06/03 08:37:26;;;;;;;1.90;0.80;;;;;;;14.52;43.10;99914.89;107834;1308;22383;-45
2023/06/03 08:39:52;;;;;;;1.70;0.60;;;;;;;14.68;43.44;99915.84;107857;1308;22224;-48
2023/06/03 08:42:22;;;;;;;2.70;0.70;;;;;;;14.89;43.16;99914.17;107877;1308;22232;-46
2023/06/03 08:44:58;;;;;;;2.30;0.80;;;;;;;15.10;43.53;99916.07;107853;1308;22239;-48
2023/06/03 08:47:55;;;;;;;2.70;0.70;;;;;;;15.37;42.13;99915.17;107868;1308;22235;-44
2023/06/03 08:50:22;;;;;;;;;;;;;;;15.67;41.30;99921.92;107880;1308;22436;-44
2023/06/03 08:52:51;;;;;;;3.60;0.80;;;;;;;15.83;41.47;99924.23;107861;1308;22914;-43
2023/06/03 08:55:17;;;;;;;1.30;0.70;;;;;;;16.02;40.96;99919.90;107866;1308;22408;-43
2023/06/03 08:57:51;;;;;;;2.10;0.70;;;;;;;16.17;39.82;99921.60;107855;1308;22500;-47
2023/06/03 09:00:21;;;;;;;1.90;0.70;;;;;;;16.45;40.17;99924.05;107846;1308;22982;-45
2023/06/03 09:02:47;;;;;;;3.90;0.80;;;;;;;16.80;39.32;99929.04;107864;1308;22282;-50
2023/06/03 09:05:14;;;;;;;0.70;0.70;;;;;;;17.08;38.77;99930.96;107845;1308;22414;-46
2023/06/03 09:07:40;;;;;;;0.80;0.70;;;;;;;17.16;35.31;99931.14;107862;1308;22964;-48
2023/06/03 09:10:07;;;;;;;0.60;0.50;;;;;;;17.30;36.26;99930.27;107858;1308;22255;-43
2023/06/03 09:12:34;;;;;;;1.60;0.60;;;;;;;17.51;36.16;99932.25;107850;1308;22394;-46
2023/06/03 09:14:59;;;;;;;2.20;1.00;;;;;;;17.67;34.17;99932.71;107859;1308;22208;-46
2023/06/03 09:17:26;;;;;;;1.30;0.80;;;;;;;17.80;34.43;99934.37;107851;1308;22110;-43
2023/06/03 09:19:54;;;;;;;3.70;0.60;;;;;;;18.02;34.94;99930.27;107870;1308;22975;-48
2023/06/03 09:22:20;;;;;;;1.80;0.60;;;;;;;18.39;34.85;99928.91;107832;1308;22110;-45
2023/06/03 09:24:45;;;;;;;1.30;0.70;;;;;;;18.64;32.53;99923.67;107843;1308;22412;-48
2023/06/03 09:27:11;;;;;;;2.80;0.70;;;;;;;19.00;34.03;99928.73;107835;1308;22305;-47
2023/06/03 09:29:36;;;;;;;6.60;0.80;;;;;;;19.46;31.63;99928.32;107848;1308;22406;-47
2023/06/03 09:32:02;;;;;;;3.50;0.60;;;;;;;19.80;30.44;99926.78;107828;1308;22466;-47
2023/06/03 09:34:28;;;;;;;6.90;0.70;;;;;;;20.27;29.80;99928.23;107885;1308;22225;-47
2023/06/03 09:36:53;;;;;;;1.10;0.60;;;;;;;20.78;28.79;99921.13;107871;1308;22279;-43
2023/06/03 09:39:33;;;;;;;1.70;0.80;;;;;;;21.31;27.89;99923.76;107841;1308;22211;-48
2023/06/03 09:41:58;;;;;;;6.60;0.90;;;;;;;21.90;28.57;99920.35;107859;1308;22563;-46
2023/06/03 09:44:24;;;;;;;3.50;0.90;;;;;;;22.39;25.70;99921.67;107821;1308;23050;-42
2023/06/03 09:46:52;;;;;;;4.00;1.00;;;;;;;22.85;24.65;99924.24;107825;1308;22302;-46
2023/06/03 09:49:18;;;;;;;1.30;0.80;;;;;;;23.34;25.01;99924.69;107843;1308;22456;-46
2023/06/03 09:51:48;;;;;;;2.60;0.80;;;;;;;24.01;26.04;99927.32;107845;1308;23031;-49
2023/06/03 09:54:25;;;;;;;2.00;0.80;;;;;;;24.71;24.44;99922.38;107832;1308;22282;-49
2023/06/03 09:56:51;;;;;;;0.90;0.80;;;;;;;24.88;22.26;99921.66;107859;1308;22407;-48
2023/06/03 09:59:18;;;;;;;2.80;0.60;;;;;;;25.33;23.23;99922.84;107871;1308;22227;-45
2023/06/03 10:01:47;;;;;;;;;;;;;;;25.68;21.76;99924.77;107871;1308;22446;-43
2023/06/03 10:04:39;;;;;;;0.70;0.70;;;;;;;25.88;23.46;99928.20;107855;1308;22503;-44
2023/06/03 10:07:09;;;;;;;0.90;0.60;;;;;;;26.22;23.65;99931.31;107719;1308;22477;-47
2023/06/03 10:09:35;;;;;;;1.60;0.90;;;;;;;26.13;21.56;99929.78;107855;1308;22228;-45
2023/06/03 10:12:01;;;;;;;2.10;0.80;;;;;;;26.09;21.11;99927.19;107827;1308;22257;-47
2023/06/03 10:14:26;;;;;;;3.20;0.80;;;;;;;26.48;20.71;99923.31;107857;1308;22243;-49
2023/06/03 10:17:08;;;;;;;3.30;0.90;;;;;;;26.81;22.69;99921.84;107861;1308;22238;-44
2023/06/03 10:19:37;;;;;;;0.60;0.60;;;;;;;27.03;21.24;99916.05;107840;1308;22275;-46
2023/06/03 10:22:05;;;;;;;0.70;0.70;;;;;;;27.51;22.30;99920.04;107854;1308;22707;-44
2023/06/03 10:24:33;;;;;;;3.70;0.90;;;;;;;27.39;20.62;99919.67;107862;1308;23050;-48
2023/06/03 10:26:58;;;;;;;3.60;0.50;;;;;;;26.95;20.28;99918.11;107799;1308;22240;-45
2023/06/03 10:29:25;;;;;;;2.10;0.90;;;;;;;27.31;20.20;99917.33;107831;1308;22397;-44
2023/06/03 10:31:53;;;;;;;1.50;0.70;;;;;;;27.12;19.77;99910.39;107843;1308;22228;-50
2023/06/03 10:34:19;;;;;;;1.40;0.60;;;;;;;27.12;20.06;99908.56;107840;1308;23046;-50
2023/06/03 10:36:51;;;;;;;1.00;0.90;;;;;;;26.97;20.25;99908.13;107875;1308;22336;-47
2023/06/03 10:39:16;;;;;;;1.30;0.80;;;;;;;27.28;21.59;99906.38;107868;1308;22992;-49
2023/06/03 10:41:43;;;;;;;0.70;0.70;;;;;;;27.87;22.26;99905.09;107850;1308;22918;-45
2023/06/03 10:44:08;;;;;;;1.20;0.60;;;;;;;28.21;20.23;99904.36;107846;1308;22289;-49
2023/06/03 10:46:36;;;;;;;2.40;0.70;;;;;;;28.46;19.10;99897.91;107858;1308;22349;-45
2023/06/03 10:49:06;;;;;;;2.30;0.70;;;;;;;28.08;19.33;99899.20;107847;1308;22227;-44
2023/06/03 10:51:37;;;;;;;4.90;0.80;;;;;;;28.66;20.13;99897.98;107851;1308;22282;-45
2023/06/03 10:54:34;;;;;;;3.80;0.90;;;;;;;28.49;18.58;99898.91;107862;1308;22246;-47
2023/06/03 10:57:06;;;;;;;1.50;0.80;;;;;;;28.60;17.38;99899.40;107845;1308;22251;-45
2023/06/03 10:59:45;;;;;;;1.50;0.80;;;;;;;28.67;17.12;99896.22;107838;1308;22382;-46
2023/06/03 11:02:11;;;;;;;1.90;0.70;;;;;;;29.10;17.63;99895.31;107862;1308;22476;-44
2023/06/03 11:04:37;;;;;;;;;;;;;;;29.22;17.51;99892.77;107878;1308;23190;-47
2023/06/03 11:07:26;;;;;;;1.40;0.80;;;;;;;28.91;17.31;99879.77;107844;1308;22217;-46
2023/06/03 11:09:52;;;;;;;2.40;1.00;;;;;;;29.03;17.69;99874.55;107875;1308;22230;-44
2023/06/03 11:12:17;;;;;;;2.50;1.20;;;;;;;29.53;17.12;99881.30;107851;1308;22233;-44
2023/06/03 11:14:48;;;;;;;1.70;1.00;;;;;;;29.14;17.43;99879.62;107845;1308;22457;-45
2023/06/03 11:17:15;;;;;;;3.80;0.90;;;;;;;29.07;17.45;99879.81;107841;1308;22947;-46
2023/06/03 11:19:51;;;;;;;0.70;0.60;;;;;;;29.71;17.47;99883.34;107828;1308;23021;-49
2023/06/03 11:22:29;;;;;;;;;;;;;;;29.73;17.56;99878.93;107869;1308;22549;-47
2023/06/03 11:24:58;;;;;;;6.10;0.90;;;;;;;29.41;17.36;99879.02;107836;1308;22413;-44
2023/06/03 11:27:25;;;;;;;2.60;0.60;;;;;;;29.95;16.93;99883.23;107842;1308;22234;-46
2023/06/03 11:29:51;;;;;;;2.10;0.80;;;;;;;29.57;16.56;99878.76;107864;1308;22228;-47
2023/06/03 11:32:24;;;;;;;1.30;0.70;;;;;;;29.49;17.09;99880.04;107830;1308;22274;-47
2023/06/03 11:34:51;;;;;;;2.10;0.90;;;;;;;29.05;16.94;99874.73;107863;1308;23093;-44
2023/06/03 11:37:19;;;;;;;1.20;0.70;;;;;;;29.45;16.73;99878.52;107844;1308;22560;-46